sensor_id;sensor_type;location;lat;lon;timestamp;P1;durP1;ratioP1;P2;durP2;ratioP2
66487;SDS011;53304;54.550;18.526;2023-08-06T00:00:39;1.25;;;0.90;;
66487;SDS011;53304;54.550;18.526;2023-08-06T00:03:05;1.42;;;0.82;;
66487;SDS011;53304;54.550;18.526;2023-08-06T00:05:33;1.38;;;0.90;;
66487;SDS011;53304;54.550;18.526;2023-08-06T00:07:58;1.20;;;0.75;;
66487;SDS011;53304;54.550;18.526;2023-08-06T00:10:24;2.08;;;0.90;;
66487;SDS011;53304;54.550;18.526;2023-08-06T00:12:49;1.38;;;0.90;;
66487;SDS011;53304;54.550;18.526;2023-08-06T00:15:14;1.67;;;1.00;;
66487;SDS011;53304;54.550;18.526;2023-08-06T00:17:40;1.95;;;0.90;;
66487;SDS011;53304;54.550;18.526;2023-08-06T00:20:05;1.17;;;0.90;;
66487;SDS011;53304;54.550;18.526;2023-08-06T00:22:37;2.13;;;0.85;;
66487;SDS011;53304;54.550;18.526;2023-08-06T00:25:05;1.75;;;1.10;;
66487;SDS011;53304;54.550;18.526;2023-08-06T00:27:36;1.30;;;0.95;;
66487;SDS011;53304;54.550;18.526;2023-08-06T00:30:04;2.17;;;1.10;;
66487;SDS011;53304;54.550;18.526;2023-08-06T00:32:30;2.63;;;0.90;;
66487;SDS011;53304;54.550;18.526;2023-08-06T00:34:55;1.55;;;0.90;;
66487;SDS011;53304;54.550;18.526;2023-08-06T00:37:23;1.42;;;0.90;;
66487;SDS011;53304;54.550;18.526;2023-08-06T00:39:51;3.13;;;1.02;;
66487;SDS011;53304;54.550;18.526;2023-08-06T00:42:16;1.30;;;0.98;;
66487;SDS011;53304;54.550;18.526;2023-08-06T00:44:48;1.33;;;1.00;;
66487;SDS011;53304;54.550;18.526;2023-08-06T00:47:16;1.38;;;0.95;;
66487;SDS011;53304;54.550;18.526;2023-08-06T00:49:44;1.33;;;0.98;;
66487;SDS011;53304;54.550;18.526;2023-08-06T00:52:09;1.05;;;0.82;;
66487;SDS011;53304;54.550;18.526;2023-08-06T00:54:41;2.47;;;1.23;;
66487;SDS011;53304;54.550;18.526;2023-08-06T00:57:11;2.05;;;1.10;;
66487;SDS011;53304;54.550;18.526;2023-08-06T00:59:37;0.88;;;0.82;;
66487;SDS011;53304;54.550;18.526;2023-08-06T01:02:05;2.00;;;0.98;;
66487;SDS011;53304;54.550;18.526;2023-08-06T01:04:30;1.67;;;1.00;;
66487;SDS011;53304;54.550;18.526;2023-08-06T01:14:42;2.15;;;1.13;;
66487;SDS011;53304;54.550;18.526;2023-08-06T01:17:14;2.40;;;1.15;;
66487;SDS011;53304;54.550;18.526;2023-08-06T01:19:42;1.48;;;0.80;;
66487;SDS011;53304;54.550;18.526;2023-08-06T01:22:08;1.67;;;0.93;;
66487;SDS011;53304;54.550;18.526;2023-08-06T01:24:36;1.90;;;1.00;;
66487;SDS011;53304;54.550;18.526;2023-08-06T01:27:06;1.45;;;0.98;;
66487;SDS011;53304;54.550;18.526;2023-08-06T01:29:41;1.77;;;1.00;;
66487;SDS011;53304;54.550;18.526;2023-08-06T01:32:10;2.67;;;1.25;;
66487;SDS011;53304;54.550;18.526;2023-08-06T01:34:40;1.85;;;1.00;;
66487;SDS011;53304;54.550;18.526;2023-08-06T01:37:07;2.10;;;1.00;;
66487;SDS011;53304;54.550;18.526;2023-08-06T01:39:35;3.38;;;1.15;;
66487;SDS011;53304;54.550;18.526;2023-08-06T01:42:00;1.55;;;0.90;;
66487;SDS011;53304;54.550;18.526;2023-08-06T01:44:28;1.77;;;1.10;;
66487;SDS011;53304;54.550;18.526;2023-08-06T01:46:54;2.15;;;1.08;;
66487;SDS011;53304;54.550;18.526;2023-08-06T01:49:22;1.77;;;0.82;;
66487;SDS011;53304;54.550;18.526;2023-08-06T01:51:47;1.55;;;1.00;;
66487;SDS011;53304;54.550;18.526;2023-08-06T01:54:13;2.05;;;1.00;;
66487;SDS011;53304;54.550;18.526;2023-08-06T01:56:38;1.50;;;1.00;;
66487;SDS011;53304;54.550;18.526;2023-08-06T01:59:06;1.80;;;1.00;;
66487;SDS011;53304;54.550;18.526;2023-08-06T02:01:31;1.83;;;0.90;;
66487;SDS011;53304;54.550;18.526;2023-08-06T02:03:56;2.50;;;1.30;;
66487;SDS011;53304;54.550;18.526;2023-08-06T02:06:27;1.73;;;1.10;;
66487;SDS011;53304;54.550;18.526;2023-08-06T02:08:55;1.00;;;0.90;;
66487;SDS011;53304;54.550;18.526;2023-08-06T02:11:20;2.25;;;1.10;;
66487;SDS011;53304;54.550;18.526;2023-08-06T02:13:48;1.48;;;1.00;;
66487;SDS011;53304;54.550;18.526;2023-08-06T02:16:13;1.42;;;0.90;;
66487;SDS011;53304;54.550;18.526;2023-08-06T02:18:38;2.72;;;0.90;;
66487;SDS011;53304;54.550;18.526;2023-08-06T02:21:06;1.60;;;1.00;;
66487;SDS011;53304;54.550;18.526;2023-08-06T02:23:34;2.15;;;1.00;;
66487;SDS011;53304;54.550;18.526;2023-08-06T02:26:03;1.27;;;1.00;;
66487;SDS011;53304;54.550;18.526;2023-08-06T02:28:31;2.38;;;0.80;;
66487;SDS011;53304;54.550;18.526;2023-08-06T02:30:57;2.75;;;1.00;;
66487;SDS011;53304;54.550;18.526;2023-08-06T02:33:23;1.45;;;0.90;;
66487;SDS011;53304;54.550;18.526;2023-08-06T02:35:50;1.10;;;0.80;;
66487;SDS011;53304;54.550;18.526;2023-08-06T02:38:25;1.30;;;0.95;;
66487;SDS011;53304;54.550;18.526;2023-08-06T02:40:50;3.80;;;1.10;;
66487;SDS011;53304;54.550;18.526;2023-08-06T02:43:15;1.50;;;1.00;;
66487;SDS011;53304;54.550;18.526;2023-08-06T02:45:48;1.90;;;1.00;;
66487;SDS011;53304;54.550;18.526;2023-08-06T02:48:16;2.20;;;1.10;;
66487;SDS011;53304;54.550;18.526;2023-08-06T02:50:45;1.38;;;0.90;;
66487;SDS011;53304;54.550;18.526;2023-08-06T02:53:11;1.08;;;0.95;;
66487;SDS011;53304;54.550;18.526;2023-08-06T02:55:36;3.05;;;1.00;;
66487;SDS011;53304;54.550;18.526;2023-08-06T02:58:06;1.42;;;1.00;;
66487;SDS011;53304;54.550;18.526;2023-08-06T03:00:37;1.85;;;0.93;;
66487;SDS011;53304;54.550;18.526;2023-08-06T03:03:05;1.25;;;0.90;;
66487;SDS011;53304;54.550;18.526;2023-08-06T03:05:30;1.35;;;0.90;;
66487;SDS011;53304;54.550;18.526;2023-08-06T03:07:58;2.53;;;1.00;;
66487;SDS011;53304;54.550;18.526;2023-08-06T03:10:26;1.35;;;0.90;;
66487;SDS011;53304;54.550;18.526;2023-08-06T03:12:52;2.05;;;0.90;;
66487;SDS011;53304;54.550;18.526;2023-08-06T03:15:17;2.42;;;0.90;;
66487;SDS011;53304;54.550;18.526;2023-08-06T03:17:45;1.35;;;0.95;;
66487;SDS011;53304;54.550;18.526;2023-08-06T03:20:10;2.15;;;1.10;;
66487;SDS011;53304;54.550;18.526;2023-08-06T03:22:35;2.70;;;1.20;;
66487;SDS011;53304;54.550;18.526;2023-08-06T03:25:01;1.85;;;1.17;;
66487;SDS011;53304;54.550;18.526;2023-08-06T03:27:28;2.67;;;1.00;;
66487;SDS011;53304;54.550;18.526;2023-08-06T03:29:56;1.85;;;1.08;;
66487;SDS011;53304;54.550;18.526;2023-08-06T03:32:24;1.80;;;1.00;;
66487;SDS011;53304;54.550;18.526;2023-08-06T03:34:54;3.28;;;1.10;;
66487;SDS011;53304;54.550;18.526;2023-08-06T03:37:22;1.90;;;0.82;;
66487;SDS011;53304;54.550;18.526;2023-08-06T03:39:47;1.90;;;1.10;;
66487;SDS011;53304;54.550;18.526;2023-08-06T03:42:15;1.80;;;1.08;;
66487;SDS011;53304;54.550;18.526;2023-08-06T03:44:40;1.83;;;0.90;;
66487;SDS011;53304;54.550;18.526;2023-08-06T03:47:11;3.35;;;1.17;;
66487;SDS011;53304;54.550;18.526;2023-08-06T03:49:41;2.47;;;1.00;;
66487;SDS011;53304;54.550;18.526;2023-08-06T03:52:06;1.52;;;1.05;;
66487;SDS011;53304;54.550;18.526;2023-08-06T03:54:32;2.67;;;1.10;;
66487;SDS011;53304;54.550;18.526;2023-08-06T03:56:57;1.33;;;0.98;;
66487;SDS011;53304;54.550;18.526;2023-08-06T03:59:25;3.10;;;1.20;;
66487;SDS011;53304;54.550;18.526;2023-08-06T04:01:53;1.88;;;1.10;;
66487;SDS011;53304;54.550;18.526;2023-08-06T04:04:23;1.98;;;1.23;;
66487;SDS011;53304;54.550;18.526;2023-08-06T04:06:48;2.22;;;1.10;;
66487;SDS011;53304;54.550;18.526;2023-08-06T04:09:13;2.95;;;1.20;;
66487;SDS011;53304;54.550;18.526;2023-08-06T04:11:41;2.03;;;1.02;;
66487;SDS011;53304;54.550;18.526;2023-08-06T04:14:07;1.80;;;1.13;;
66487;SDS011;53304;54.550;18.526;2023-08-06T04:16:32;2.30;;;1.10;;
66487;SDS011;53304;54.550;18.526;2023-08-06T04:19:00;2.30;;;0.95;;
66487;SDS011;53304;54.550;18.526;2023-08-06T04:21:30;1.63;;;1.05;;
66487;SDS011;53304;54.550;18.526;2023-08-06T04:23:56;1.02;;;0.80;;
66487;SDS011;53304;54.550;18.526;2023-08-06T04:26:22;1.45;;;1.10;;
66487;SDS011;53304;54.550;18.526;2023-08-06T04:28:49;2.85;;;1.30;;
66487;SDS011;53304;54.550;18.526;2023-08-06T04:31:14;3.22;;;1.20;;
66487;SDS011;53304;54.550;18.526;2023-08-06T04:33:40;1.92;;;1.38;;
66487;SDS011;53304;54.550;18.526;2023-08-06T04:36:06;4.03;;;1.27;;
66487;SDS011;53304;54.550;18.526;2023-08-06T04:38:31;2.25;;;1.10;;
66487;SDS011;53304;54.550;18.526;2023-08-06T04:40:57;1.50;;;0.90;;
66487;SDS011;53304;54.550;18.526;2023-08-06T04:43:23;2.38;;;1.15;;
66487;SDS011;53304;54.550;18.526;2023-08-06T04:45:49;2.05;;;1.05;;
66487;SDS011;53304;54.550;18.526;2023-08-06T04:48:15;1.90;;;1.02;;
66487;SDS011;53304;54.550;18.526;2023-08-06T04:50:43;2.33;;;0.90;;
66487;SDS011;53304;54.550;18.526;2023-08-06T04:53:11;1.52;;;1.00;;
66487;SDS011;53304;54.550;18.526;2023-08-06T04:55:40;1.25;;;0.95;;
66487;SDS011;53304;54.550;18.526;2023-08-06T04:58:10;2.25;;;1.30;;
66487;SDS011;53304;54.550;18.526;2023-08-06T05:00:38;1.73;;;1.15;;
66487;SDS011;53304;54.550;18.526;2023-08-06T05:03:05;2.72;;;1.20;;
66487;SDS011;53304;54.550;18.526;2023-08-06T05:05:33;1.60;;;1.10;;
66487;SDS011;53304;54.550;18.526;2023-08-06T05:07:58;1.80;;;1.08;;
66487;SDS011;53304;54.550;18.526;2023-08-06T05:10:24;2.45;;;1.20;;
66487;SDS011;53304;54.550;18.526;2023-08-06T05:12:51;2.85;;;1.30;;
66487;SDS011;53304;54.550;18.526;2023-08-06T05:15:21;1.73;;;1.00;;
66487;SDS011;53304;54.550;18.526;2023-08-06T05:17:46;2.33;;;1.20;;
66487;SDS011;53304;54.550;18.526;2023-08-06T05:20:11;2.70;;;1.20;;
66487;SDS011;53304;54.550;18.526;2023-08-06T05:22:39;3.47;;;1.20;;
66487;SDS011;53304;54.550;18.526;2023-08-06T05:25:11;2.45;;;1.15;;
66487;SDS011;53304;54.550;18.526;2023-08-06T05:27:40;4.30;;;1.40;;
66487;SDS011;53304;54.550;18.526;2023-08-06T05:30:06;1.52;;;0.90;;
66487;SDS011;53304;54.550;18.526;2023-08-06T05:32:32;1.95;;;1.23;;
66487;SDS011;53304;54.550;18.526;2023-08-06T05:34:57;3.10;;;1.35;;
66487;SDS011;53304;54.550;18.526;2023-08-06T05:37:22;1.70;;;1.38;;
66487;SDS011;53304;54.550;18.526;2023-08-06T05:39:50;2.30;;;1.23;;
66487;SDS011;53304;54.550;18.526;2023-08-06T05:42:18;3.08;;;1.27;;
66487;SDS011;53304;54.550;18.526;2023-08-06T05:44:48;3.17;;;1.42;;
66487;SDS011;53304;54.550;18.526;2023-08-06T05:47:16;2.33;;;1.30;;
66487;SDS011;53304;54.550;18.526;2023-08-06T05:49:41;2.95;;;1.20;;
66487;SDS011;53304;54.550;18.526;2023-08-06T05:52:09;2.28;;;1.20;;
66487;SDS011;53304;54.550;18.526;2023-08-06T05:54:37;2.30;;;1.38;;
66487;SDS011;53304;54.550;18.526;2023-08-06T05:57:04;4.10;;;1.17;;
66487;SDS011;53304;54.550;18.526;2023-08-06T05:59:33;2.40;;;1.00;;
66487;SDS011;53304;54.550;18.526;2023-08-06T06:01:58;2.75;;;1.17;;
66487;SDS011;53304;54.550;18.526;2023-08-06T06:04:28;4.03;;;1.35;;
66487;SDS011;53304;54.550;18.526;2023-08-06T06:06:54;4.72;;;1.20;;
66487;SDS011;53304;54.550;18.526;2023-08-06T06:09:22;3.30;;;1.40;;
66487;SDS011;53304;54.550;18.526;2023-08-06T06:11:47;2.10;;;1.23;;
66487;SDS011;53304;54.550;18.526;2023-08-06T06:14:15;4.15;;;1.65;;
66487;SDS011;53304;54.550;18.526;2023-08-06T06:16:44;2.78;;;1.35;;
66487;SDS011;53304;54.550;18.526;2023-08-06T06:19:10;2.80;;;1.48;;
66487;SDS011;53304;54.550;18.526;2023-08-06T06:21:35;2.15;;;1.25;;
66487;SDS011;53304;54.550;18.526;2023-08-06T06:24:03;3.50;;;1.30;;
66487;SDS011;53304;54.550;18.526;2023-08-06T06:26:32;2.03;;;1.20;;
66487;SDS011;53304;54.550;18.526;2023-08-06T06:28:58;3.25;;;1.30;;
66487;SDS011;53304;54.550;18.526;2023-08-06T06:31:23;2.33;;;1.33;;
66487;SDS011;53304;54.550;18.526;2023-08-06T06:33:48;1.95;;;1.10;;
66487;SDS011;53304;54.550;18.526;2023-08-06T06:36:14;2.35;;;1.27;;
66487;SDS011;53304;54.550;18.526;2023-08-06T06:38:39;1.92;;;1.10;;
66487;SDS011;53304;54.550;18.526;2023-08-06T06:41:07;1.75;;;1.17;;
66487;SDS011;53304;54.550;18.526;2023-08-06T06:43:33;3.28;;;1.30;;
66487;SDS011;53304;54.550;18.526;2023-08-06T06:46:00;2.58;;;1.60;;
66487;SDS011;53304;54.550;18.526;2023-08-06T06:48:29;2.03;;;1.30;;
66487;SDS011;53304;54.550;18.526;2023-08-06T06:50:59;5.78;;;1.40;;
66487;SDS011;53304;54.550;18.526;2023-08-06T06:53:24;3.22;;;1.50;;
66487;SDS011;53304;54.550;18.526;2023-08-06T06:55:53;2.30;;;1.35;;
66487;SDS011;53304;54.550;18.526;2023-08-06T06:58:24;2.80;;;1.30;;
66487;SDS011;53304;54.550;18.526;2023-08-06T07:00:51;2.88;;;1.25;;
66487;SDS011;53304;54.550;18.526;2023-08-06T07:03:17;2.28;;;1.20;;
66487;SDS011;53304;54.550;18.526;2023-08-06T07:05:44;2.85;;;1.20;;
66487;SDS011;53304;54.550;18.526;2023-08-06T07:08:10;5.25;;;1.50;;
66487;SDS011;53304;54.550;18.526;2023-08-06T07:10:36;4.32;;;1.40;;
66487;SDS011;53304;54.550;18.526;2023-08-06T07:13:07;3.38;;;1.40;;
66487;SDS011;53304;54.550;18.526;2023-08-06T07:15:33;2.00;;;1.20;;
66487;SDS011;53304;54.550;18.526;2023-08-06T07:18:00;3.88;;;1.30;;
66487;SDS011;53304;54.550;18.526;2023-08-06T07:20:28;2.63;;;1.23;;
66487;SDS011;53304;54.550;18.526;2023-08-06T07:22:58;2.58;;;1.20;;
66487;SDS011;53304;54.550;18.526;2023-08-06T07:25:24;3.90;;;1.35;;
66487;SDS011;53304;54.550;18.526;2023-08-06T07:27:52;3.80;;;1.20;;
66487;SDS011;53304;54.550;18.526;2023-08-06T07:30:17;2.63;;;1.40;;
66487;SDS011;53304;54.550;18.526;2023-08-06T07:32:45;2.30;;;1.40;;
66487;SDS011;53304;54.550;18.526;2023-08-06T07:35:10;2.92;;;1.38;;
66487;SDS011;53304;54.550;18.526;2023-08-06T07:37:38;3.17;;;1.30;;
66487;SDS011;53304;54.550;18.526;2023-08-06T07:40:06;2.85;;;1.30;;
66487;SDS011;53304;54.550;18.526;2023-08-06T07:42:37;2.22;;;1.30;;
66487;SDS011;53304;54.550;18.526;2023-08-06T07:45:05;4.07;;;1.38;;
66487;SDS011;53304;54.550;18.526;2023-08-06T07:47:32;3.47;;;1.30;;
66487;SDS011;53304;54.550;18.526;2023-08-06T07:49:57;3.20;;;1.20;;
66487;SDS011;53304;54.550;18.526;2023-08-06T07:52:25;3.67;;;1.15;;
66487;SDS011;53304;54.550;18.526;2023-08-06T07:54:50;2.72;;;1.50;;
66487;SDS011;53304;54.550;18.526;2023-08-06T07:57:18;4.43;;;1.50;;
66487;SDS011;53304;54.550;18.526;2023-08-06T07:59:46;1.75;;;1.27;;
66487;SDS011;53304;54.550;18.526;2023-08-06T08:02:11;2.15;;;1.40;;
66487;SDS011;53304;54.550;18.526;2023-08-06T08:04:37;4.35;;;1.70;;
66487;SDS011;53304;54.550;18.526;2023-08-06T08:07:04;3.20;;;1.33;;
66487;SDS011;53304;54.550;18.526;2023-08-06T08:09:32;2.67;;;1.42;;
66487;SDS011;53304;54.550;18.526;2023-08-06T08:11:59;1.92;;;1.13;;
66487;SDS011;53304;54.550;18.526;2023-08-06T08:14:26;1.85;;;1.23;;
66487;SDS011;53304;54.550;18.526;2023-08-06T08:16:51;1.92;;;1.10;;
66487;SDS011;53304;54.550;18.526;2023-08-06T08:19:24;3.35;;;1.30;;
66487;SDS011;53304;54.550;18.526;2023-08-06T08:21:51;3.55;;;1.60;;
66487;SDS011;53304;54.550;18.526;2023-08-06T08:24:20;3.38;;;1.48;;
66487;SDS011;53304;54.550;18.526;2023-08-06T08:26:48;3.70;;;1.45;;
66487;SDS011;53304;54.550;18.526;2023-08-06T08:29:19;2.78;;;1.60;;
66487;SDS011;53304;54.550;18.526;2023-08-06T08:31:48;3.42;;;1.50;;
66487;SDS011;53304;54.550;18.526;2023-08-06T08:34:16;2.67;;;1.40;;
66487;SDS011;53304;54.550;18.526;2023-08-06T08:36:42;2.88;;;1.40;;
66487;SDS011;53304;54.550;18.526;2023-08-06T08:39:08;3.53;;;1.55;;
66487;SDS011;53304;54.550;18.526;2023-08-06T08:41:33;5.05;;;1.63;;
66487;SDS011;53304;54.550;18.526;2023-08-06T08:44:02;4.28;;;1.30;;
66487;SDS011;53304;54.550;18.526;2023-08-06T08:46:31;3.38;;;1.63;;
66487;SDS011;53304;54.550;18.526;2023-08-06T08:49:00;2.83;;;1.65;;
66487;SDS011;53304;54.550;18.526;2023-08-06T08:51:27;1.80;;;1.30;;
66487;SDS011;53304;54.550;18.526;2023-08-06T08:53:53;3.17;;;1.40;;
66487;SDS011;53304;54.550;18.526;2023-08-06T08:56:24;1.77;;;1.25;;
66487;SDS011;53304;54.550;18.526;2023-08-06T08:58:50;2.75;;;1.30;;
66487;SDS011;53304;54.550;18.526;2023-08-06T09:01:20;2.78;;;1.45;;
66487;SDS011;53304;54.550;18.526;2023-08-06T09:03:47;3.92;;;1.60;;
66487;SDS011;53304;54.550;18.526;2023-08-06T09:06:12;3.90;;;1.45;;
66487;SDS011;53304;54.550;18.526;2023-08-06T09:08:47;5.95;;;1.65;;
66487;SDS011;53304;54.550;18.526;2023-08-06T09:11:27;2.60;;;1.40;;
66487;SDS011;53304;54.550;18.526;2023-08-06T09:14:04;4.22;;;1.67;;
66487;SDS011;53304;54.550;18.526;2023-08-06T09:16:34;5.07;;;1.92;;
66487;SDS011;53304;54.550;18.526;2023-08-06T09:19:10;3.80;;;1.50;;
66487;SDS011;53304;54.550;18.526;2023-08-06T09:21:37;3.72;;;1.45;;
66487;SDS011;53304;54.550;18.526;2023-08-06T09:24:09;5.72;;;1.83;;
66487;SDS011;53304;54.550;18.526;2023-08-06T09:26:44;3.50;;;1.60;;
66487;SDS011;53304;54.550;18.526;2023-08-06T09:29:12;4.90;;;2.10;;
66487;SDS011;53304;54.550;18.526;2023-08-06T09:31:41;3.83;;;1.70;;
66487;SDS011;53304;54.550;18.526;2023-08-06T09:34:14;4.78;;;2.15;;
66487;SDS011;53304;54.550;18.526;2023-08-06T09:36:42;3.65;;;1.50;;
66487;SDS011;53304;54.550;18.526;2023-08-06T09:39:12;3.67;;;1.50;;
66487;SDS011;53304;54.550;18.526;2023-08-06T09:41:43;3.60;;;1.50;;
66487;SDS011;53304;54.550;18.526;2023-08-06T09:44:19;4.65;;;1.42;;
66487;SDS011;53304;54.550;18.526;2023-08-06T09:49:19;3.67;;;1.55;;
66487;SDS011;53304;54.550;18.526;2023-08-06T09:51:48;6.20;;;1.70;;
66487;SDS011;53304;54.550;18.526;2023-08-06T09:54:23;3.72;;;1.85;;
66487;SDS011;53304;54.550;18.526;2023-08-06T09:56:49;4.40;;;1.60;;
66487;SDS011;53304;54.550;18.526;2023-08-06T09:59:20;3.13;;;1.50;;
66487;SDS011;53304;54.550;18.526;2023-08-06T10:01:46;4.03;;;1.50;;
66487;SDS011;53304;54.550;18.526;2023-08-06T10:04:14;2.78;;;1.70;;
66487;SDS011;53304;54.550;18.526;2023-08-06T10:06:43;3.78;;;1.45;;
66487;SDS011;53304;54.550;18.526;2023-08-06T10:09:21;6.63;;;1.60;;
66487;SDS011;53304;54.550;18.526;2023-08-06T10:11:52;2.72;;;1.63;;
66487;SDS011;53304;54.550;18.526;2023-08-06T10:16:51;2.60;;;1.60;;
66487;SDS011;53304;54.550;18.526;2023-08-06T10:19:16;3.00;;;1.70;;
66487;SDS011;53304;54.550;18.526;2023-08-06T10:24:46;3.00;;;1.70;;
66487;SDS011;53304;54.550;18.526;2023-08-06T10:27:22;2.63;;;1.73;;
66487;SDS011;53304;54.550;18.526;2023-08-06T10:29:53;3.55;;;1.60;;
66487;SDS011;53304;54.550;18.526;2023-08-06T10:32:21;2.55;;;1.40;;
66487;SDS011;53304;54.550;18.526;2023-08-06T10:37:22;2.85;;;1.40;;
66487;SDS011;53304;54.550;18.526;2023-08-06T10:39:50;3.13;;;1.52;;
66487;SDS011;53304;54.550;18.526;2023-08-06T10:42:19;4.97;;;1.80;;
66487;SDS011;53304;54.550;18.526;2023-08-06T10:47:40;5.03;;;1.52;;
66487;SDS011;53304;54.550;18.526;2023-08-06T10:50:07;3.30;;;1.65;;
66487;SDS011;53304;54.550;18.526;2023-08-06T10:52:34;3.08;;;1.40;;
66487;SDS011;53304;54.550;18.526;2023-08-06T10:55:02;3.97;;;1.70;;
66487;SDS011;53304;54.550;18.526;2023-08-06T10:57:30;3.88;;;1.60;;
66487;SDS011;53304;54.550;18.526;2023-08-06T10:59:57;2.65;;;1.50;;
66487;SDS011;53304;54.550;18.526;2023-08-06T11:02:25;2.95;;;1.38;;
66487;SDS011;53304;54.550;18.526;2023-08-06T11:04:50;2.95;;;1.60;;
66487;SDS011;53304;54.550;18.526;2023-08-06T11:07:18;3.42;;;1.60;;
66487;SDS011;53304;54.550;18.526;2023-08-06T11:09:49;4.45;;;1.75;;
66487;SDS011;53304;54.550;18.526;2023-08-06T11:12:18;3.13;;;1.27;;
66487;SDS011;53304;54.550;18.526;2023-08-06T11:14:49;3.72;;;1.50;;
66487;SDS011;53304;54.550;18.526;2023-08-06T11:17:15;2.67;;;1.40;;
66487;SDS011;53304;54.550;18.526;2023-08-06T11:19:41;3.40;;;1.38;;
66487;SDS011;53304;54.550;18.526;2023-08-06T11:22:08;2.58;;;1.20;;
66487;SDS011;53304;54.550;18.526;2023-08-06T11:24:34;2.78;;;1.50;;
66487;SDS011;53304;54.550;18.526;2023-08-06T11:27:01;2.60;;;1.40;;
66487;SDS011;53304;54.550;18.526;2023-08-06T11:29:30;1.92;;;1.15;;
66487;SDS011;53304;54.550;18.526;2023-08-06T11:32:03;4.35;;;1.50;;
66487;SDS011;53304;54.550;18.526;2023-08-06T11:34:29;3.85;;;1.38;;
66487;SDS011;53304;54.550;18.526;2023-08-06T11:36:56;2.08;;;1.38;;
66487;SDS011;53304;54.550;18.526;2023-08-06T11:39:26;2.63;;;1.50;;
66487;SDS011;53304;54.550;18.526;2023-08-06T11:41:54;2.47;;;1.30;;
66487;SDS011;53304;54.550;18.526;2023-08-06T11:44:19;3.08;;;1.40;;
66487;SDS011;53304;54.550;18.526;2023-08-06T11:46:54;2.67;;;1.40;;
66487;SDS011;53304;54.550;18.526;2023-08-06T11:54:47;2.65;;;1.45;;
66487;SDS011;53304;54.550;18.526;2023-08-06T11:57:13;3.00;;;1.60;;
66487;SDS011;53304;54.550;18.526;2023-08-06T11:59:39;3.08;;;1.30;;
66487;SDS011;53304;54.550;18.526;2023-08-06T12:02:07;1.52;;;1.10;;
66487;SDS011;53304;54.550;18.526;2023-08-06T12:05:17;1.85;;;1.35;;
66487;SDS011;53304;54.550;18.526;2023-08-06T12:07:32;2.10;;;1.30;;
66487;SDS011;53304;54.550;18.526;2023-08-06T12:10:04;2.28;;;1.35;;
66487;SDS011;53304;54.550;18.526;2023-08-06T12:12:33;2.55;;;1.50;;
66487;SDS011;53304;54.550;18.526;2023-08-06T12:14:59;2.13;;;1.35;;
66487;SDS011;53304;54.550;18.526;2023-08-06T12:17:25;2.90;;;1.20;;
66487;SDS011;53304;54.550;18.526;2023-08-06T12:19:53;2.10;;;1.40;;
66487;SDS011;53304;54.550;18.526;2023-08-06T12:22:18;2.25;;;1.45;;
66487;SDS011;53304;54.550;18.526;2023-08-06T12:24:44;2.40;;;1.30;;
66487;SDS011;53304;54.550;18.526;2023-08-06T12:27:13;1.75;;;1.20;;
66487;SDS011;53304;54.550;18.526;2023-08-06T12:29:42;2.05;;;1.48;;
66487;SDS011;53304;54.550;18.526;2023-08-06T12:32:09;2.22;;;1.40;;
66487;SDS011;53304;54.550;18.526;2023-08-06T12:34:41;2.45;;;1.45;;
66487;SDS011;53304;54.550;18.526;2023-08-06T12:37:07;2.55;;;1.38;;
66487;SDS011;53304;54.550;18.526;2023-08-06T12:39:33;2.13;;;1.35;;
66487;SDS011;53304;54.550;18.526;2023-08-06T12:42:02;3.35;;;1.52;;
66487;SDS011;53304;54.550;18.526;2023-08-06T12:44:31;2.83;;;1.30;;
66487;SDS011;53304;54.550;18.526;2023-08-06T12:47:02;3.50;;;1.60;;
66487;SDS011;53304;54.550;18.526;2023-08-06T12:49:27;2.22;;;1.48;;
66487;SDS011;53304;54.550;18.526;2023-08-06T12:51:56;2.83;;;1.40;;
66487;SDS011;53304;54.550;18.526;2023-08-06T12:54:22;3.15;;;1.60;;
66487;SDS011;53304;54.550;18.526;2023-08-06T12:56:48;2.25;;;1.42;;
66487;SDS011;53304;54.550;18.526;2023-08-06T12:59:14;2.00;;;1.23;;
66487;SDS011;53304;54.550;18.526;2023-08-06T13:01:45;2.08;;;1.48;;
66487;SDS011;53304;54.550;18.526;2023-08-06T13:04:10;2.50;;;1.50;;
66487;SDS011;53304;54.550;18.526;2023-08-06T13:06:38;2.90;;;1.58;;
66487;SDS011;53304;54.550;18.526;2023-08-06T13:09:08;3.22;;;1.63;;
66487;SDS011;53304;54.550;18.526;2023-08-06T13:11:37;3.47;;;1.90;;
66487;SDS011;53304;54.550;18.526;2023-08-06T13:14:07;2.88;;;1.50;;
66487;SDS011;53304;54.550;18.526;2023-08-06T13:16:34;2.97;;;1.60;;
66487;SDS011;53304;54.550;18.526;2023-08-06T13:19:03;2.55;;;1.42;;
66487;SDS011;53304;54.550;18.526;2023-08-06T13:21:57;3.60;;;1.92;;
66487;SDS011;53304;54.550;18.526;2023-08-06T13:24:25;3.40;;;1.70;;
66487;SDS011;53304;54.550;18.526;2023-08-06T13:26:50;2.40;;;1.55;;
66487;SDS011;53304;54.550;18.526;2023-08-06T13:29:15;2.88;;;1.65;;
66487;SDS011;53304;54.550;18.526;2023-08-06T13:31:43;3.10;;;1.83;;
66487;SDS011;53304;54.550;18.526;2023-08-06T13:34:14;2.78;;;1.42;;
66487;SDS011;53304;54.550;18.526;2023-08-06T13:36:41;2.03;;;1.38;;
66487;SDS011;53304;54.550;18.526;2023-08-06T13:39:10;4.05;;;1.90;;
66487;SDS011;53304;54.550;18.526;2023-08-06T13:41:36;2.72;;;1.40;;
66487;SDS011;53304;54.550;18.526;2023-08-06T13:44:03;3.08;;;1.40;;
66487;SDS011;53304;54.550;18.526;2023-08-06T13:46:29;3.28;;;1.50;;
66487;SDS011;53304;54.550;18.526;2023-08-06T13:48:56;4.10;;;1.70;;
66487;SDS011;53304;54.550;18.526;2023-08-06T13:51:24;2.35;;;1.40;;
66487;SDS011;53304;54.550;18.526;2023-08-06T13:53:50;2.80;;;1.58;;
66487;SDS011;53304;54.550;18.526;2023-08-06T13:56:19;2.67;;;1.40;;
66487;SDS011;53304;54.550;18.526;2023-08-06T13:58:45;3.28;;;1.60;;
66487;SDS011;53304;54.550;18.526;2023-08-06T14:01:11;3.05;;;1.50;;
66487;SDS011;53304;54.550;18.526;2023-08-06T14:03:41;3.97;;;1.98;;
66487;SDS011;53304;54.550;18.526;2023-08-06T14:06:08;4.32;;;1.90;;
66487;SDS011;53304;54.550;18.526;2023-08-06T14:08:36;3.30;;;1.85;;
66487;SDS011;53304;54.550;18.526;2023-08-06T14:11:02;3.90;;;1.92;;
66487;SDS011;53304;54.550;18.526;2023-08-06T14:13:31;4.80;;;2.15;;
66487;SDS011;53304;54.550;18.526;2023-08-06T14:15:59;2.80;;;1.70;;
66487;SDS011;53304;54.550;18.526;2023-08-06T14:18:24;3.25;;;1.83;;
66487;SDS011;53304;54.550;18.526;2023-08-06T14:20:50;2.78;;;1.83;;
66487;SDS011;53304;54.550;18.526;2023-08-06T14:23:17;2.63;;;1.90;;
66487;SDS011;53304;54.550;18.526;2023-08-06T14:25:43;3.05;;;1.70;;
66487;SDS011;53304;54.550;18.526;2023-08-06T14:28:08;3.78;;;1.80;;
66487;SDS011;53304;54.550;18.526;2023-08-06T14:30:34;2.97;;;1.60;;
66487;SDS011;53304;54.550;18.526;2023-08-06T14:33:02;3.35;;;1.80;;
66487;SDS011;53304;54.550;18.526;2023-08-06T14:35:28;3.15;;;1.60;;
66487;SDS011;53304;54.550;18.526;2023-08-06T14:37:53;4.43;;;1.95;;
66487;SDS011;53304;54.550;18.526;2023-08-06T14:40:19;2.58;;;1.70;;
66487;SDS011;53304;54.550;18.526;2023-08-06T14:42:46;3.25;;;2.13;;
66487;SDS011;53304;54.550;18.526;2023-08-06T14:45:14;3.92;;;2.00;;
66487;SDS011;53304;54.550;18.526;2023-08-06T14:47:40;3.75;;;2.00;;
66487;SDS011;53304;54.550;18.526;2023-08-06T14:50:07;3.53;;;2.00;;
66487;SDS011;53304;54.550;18.526;2023-08-06T14:52:36;4.63;;;2.38;;
66487;SDS011;53304;54.550;18.526;2023-08-06T14:55:04;3.22;;;2.00;;
66487;SDS011;53304;54.550;18.526;2023-08-06T14:57:30;3.70;;;2.17;;
66487;SDS011;53304;54.550;18.526;2023-08-06T14:59:56;3.30;;;2.00;;
66487;SDS011;53304;54.550;18.526;2023-08-06T15:02:21;3.10;;;1.75;;